createdAt,value
2022-08-26T00:02:02.436Z,101289.41
2022-08-26T00:04:31.394Z,101297.06
2022-08-26T00:06:59.362Z,101282.97
2022-08-26T00:09:28.392Z,101278.53
2022-08-26T00:11:55.974Z,101281.34
2022-08-26T00:14:28.278Z,101288.63
2022-08-26T00:16:57.704Z,101282.16
2022-08-26T00:19:25.264Z,101276.53
2022-08-26T00:21:52.799Z,101271.69
2022-08-26T00:24:21.029Z,101278.13
2022-08-26T00:26:50.001Z,101277.34
2022-08-26T00:29:19.226Z,101270.06
2022-08-26T00:31:48.846Z,101274.91
2022-08-26T00:34:19.278Z,101269.28
2022-08-26T00:36:47.771Z,101268.06
2022-08-26T00:39:19.917Z,101258.81
2022-08-26T00:41:47.862Z,101265.25
2022-08-26T00:44:16.803Z,101270.06
2022-08-26T00:46:46.866Z,101264.44
2022-08-26T00:49:15.289Z,101258.81
2022-08-26T00:51:44.964Z,101258.81
2022-08-26T00:54:12.893Z,101258.81
2022-08-26T00:56:42.325Z,101258.81
2022-08-26T00:59:10.450Z,101252.34
2022-08-26T01:01:39.369Z,101247.53
2022-08-26T01:04:06.859Z,101254.34
2022-08-26T01:06:34.509Z,101252.34
2022-08-26T01:09:02.525Z,101251.53
2022-08-26T01:11:30.374Z,101258.00
2022-08-26T01:13:58.087Z,101258.00
2022-08-26T01:16:25.892Z,101258.00
2022-08-26T01:18:55.129Z,101257.19
2022-08-26T01:21:24.119Z,101260.00
2022-08-26T01:23:57.559Z,101255.56
2022-08-26T01:26:25.945Z,101258.00
2022-08-26T01:28:55.482Z,101257.19
2022-08-26T01:31:24.725Z,101256.38
2022-08-26T01:33:53.583Z,101255.16
2022-08-26T01:36:21.097Z,101253.16
2022-08-26T01:38:48.647Z,101253.16
2022-08-26T01:41:19.663Z,101249.53
2022-08-26T01:43:47.553Z,101240.25
2022-08-26T01:46:16.143Z,101245.91
2022-08-26T01:48:43.885Z,101241.88
2022-08-26T01:51:11.625Z,101241.88
2022-08-26T01:53:39.453Z,101240.25
2022-08-26T01:56:09.414Z,101240.25
2022-08-26T01:58:39.183Z,101229.00
2022-08-26T02:01:06.967Z,101235.81
2022-08-26T02:03:38.712Z,101238.66
2022-08-26T02:06:10.337Z,101240.25
2022-08-26T02:08:38.493Z,101240.25
2022-08-26T02:11:06.820Z,101233.00
2022-08-26T02:13:34.908Z,101233.00
2022-08-26T02:16:04.539Z,101231.38
2022-08-26T02:18:32.460Z,101234.63
2022-08-26T02:21:00.383Z,101229.00
2022-08-26T02:23:27.987Z,101233.00
2022-08-26T02:25:56.778Z,101227.38
2022-08-26T02:28:26.624Z,101233.00
2022-08-26T02:30:55.621Z,101239.47
2022-08-26T02:33:24.709Z,101231.38
2022-08-26T02:35:52.594Z,101233.81
2022-08-26T02:38:20.134Z,101227.38
2022-08-26T02:40:48.217Z,101235.03
2022-08-26T02:43:15.826Z,101233.00
2022-08-26T02:45:43.573Z,101240.25
2022-08-26T02:48:12.196Z,101227.38
2022-08-26T02:50:41.111Z,101228.19
2022-08-26T02:53:10.343Z,101230.19
2022-08-26T02:55:37.909Z,101212.47
2022-08-26T02:58:05.477Z,101221.72
2022-08-26T03:00:33.353Z,101221.72
2022-08-26T03:03:01.043Z,101226.56
2022-08-26T03:05:28.677Z,101224.56
2022-08-26T03:07:57.589Z,101220.09
2022-08-26T03:10:28.081Z,101216.09
2022-08-26T03:12:55.805Z,101220.09
2022-08-26T03:15:24.357Z,101210.47
2022-08-26T03:17:51.899Z,101217.28
2022-08-26T03:20:19.376Z,101213.28
2022-08-26T03:22:46.972Z,101206.00
2022-08-26T03:25:16.484Z,101208.44
2022-08-26T03:27:44.250Z,101209.66
2022-08-26T03:30:29.641Z,101209.66
2022-08-26T03:32:57.224Z,101203.16
2022-08-26T03:35:25.531Z,101204.81
2022-08-26T03:37:53.231Z,101210.47
2022-08-26T03:40:22.591Z,101209.66
2022-08-26T03:42:50.381Z,101209.66
2022-08-26T03:45:18.034Z,101204.00
2022-08-26T03:47:45.972Z,101207.19
2022-08-26T03:50:15.788Z,101200.34
2022-08-26T03:52:44.167Z,101203.16
2022-08-26T03:55:12.057Z,101203.16
2022-08-26T03:57:40.959Z,101203.16
2022-08-26T04:00:11.979Z,101197.53
2022-08-26T04:02:40.644Z,101194.72
2022-08-26T04:05:09.063Z,101191.91
2022-08-26T04:07:36.724Z,101187.47
2022-08-26T04:10:04.908Z,101191.91
2022-08-26T04:12:32.425Z,101189.06
2022-08-26T04:15:01.380Z,101189.06
2022-08-26T04:17:30.436Z,101186.25
2022-08-26T04:19:58.050Z,101187.09
2022-08-26T04:22:25.532Z,101193.53
2022-08-26T04:24:53.169Z,101186.25
2022-08-26T04:27:20.859Z,101189.06
2022-08-26T04:29:51.433Z,101179.81
2022-08-26T04:32:24.844Z,101179.00
2022-08-26T04:34:52.435Z,101186.25
2022-08-26T04:37:20.590Z,101191.91
2022-08-26T04:39:51.872Z,101186.25
2022-08-26T04:42:23.311Z,101188.25
2022-08-26T04:44:53.884Z,101189.06
2022-08-26T04:47:21.749Z,101191.91
2022-08-26T04:49:53.303Z,101186.25
2022-08-26T04:52:22.342Z,101189.06
2022-08-26T04:54:50.401Z,101193.91
2022-08-26T04:57:17.976Z,101190.28
2022-08-26T04:59:45.652Z,101196.72
2022-08-26T05:02:13.842Z,101202.38
2022-08-26T05:04:43.531Z,101202.38
2022-08-26T05:07:12.868Z,101214.44
2022-08-26T05:09:40.498Z,101207.19
2022-08-26T05:12:09.341Z,101212.81
2022-08-26T05:14:36.946Z,101204.38
2022-08-26T05:17:04.742Z,101201.56
2022-08-26T05:19:32.793Z,101200.75
2022-08-26T05:22:00.831Z,101212.81
2022-08-26T05:24:30.105Z,101204.38
2022-08-26T05:26:57.603Z,101214.44
2022-08-26T05:29:27.810Z,101209.19
2022-08-26T05:31:56.022Z,101215.66
2022-08-26T05:34:23.671Z,101213.63
2022-08-26T05:36:57.761Z,101205.19
2022-08-26T05:39:25.322Z,101199.94
2022-08-26T05:41:54.205Z,101201.56
2022-08-26T05:44:22.357Z,101199.94
2022-08-26T05:46:51.223Z,101208.41
2022-08-26T05:49:18.983Z,101207.19
2022-08-26T05:51:48.073Z,101207.19
2022-08-26T05:54:22.121Z,101212.03
2022-08-26T05:56:51.494Z,101210.00
2022-08-26T05:59:24.094Z,101205.56
2022-08-26T06:01:52.922Z,101205.56
2022-08-26T06:04:21.203Z,101206.38
2022-08-26T06:06:49.127Z,101216.84
2022-08-26T06:09:18.236Z,101207.19
2022-08-26T06:11:46.152Z,101202.75
2022-08-26T06:14:14.308Z,101211.22
2022-08-26T06:16:45.158Z,101218.47
2022-08-26T06:19:13.567Z,101212.03
2022-08-26T06:21:42.151Z,101211.22
2022-08-26T06:24:29.308Z,101211.22
2022-08-26T06:26:58.036Z,101214.84
2022-08-26T06:29:26.368Z,101207.19
2022-08-26T06:31:56.220Z,101208.00
2022-08-26T06:34:26.587Z,101201.56
2022-08-26T06:36:58.425Z,101211.22
2022-08-26T06:39:25.948Z,101207.19
2022-08-26T06:41:54.633Z,101207.19
2022-08-26T06:44:23.256Z,101210.00
2022-08-26T06:46:51.372Z,101214.44
2022-08-26T06:49:25.858Z,101212.81
2022-08-26T06:51:55.250Z,101204.38
2022-08-26T06:54:22.825Z,101207.19
2022-08-26T06:56:50.772Z,101207.19
2022-08-26T06:59:18.381Z,101204.38
2022-08-26T07:01:45.946Z,101201.56
2022-08-26T07:04:14.463Z,101201.56
2022-08-26T07:06:47.070Z,101195.91
2022-08-26T07:09:14.773Z,101190.28
2022-08-26T07:11:42.369Z,101195.09
2022-08-26T07:14:10.070Z,101193.09
2022-08-26T07:16:38.132Z,101186.25
2022-08-26T07:19:10.777Z,101190.28
2022-08-26T07:21:40.345Z,101186.25
2022-08-26T07:24:11.096Z,101190.28
2022-08-26T07:26:39.072Z,101186.66
2022-08-26T07:29:11.522Z,101179.00
2022-08-26T07:31:39.514Z,101179.00
2022-08-26T07:34:10.547Z,101181.81
2022-08-26T07:36:38.072Z,101174.16
2022-08-26T07:39:05.817Z,101174.97
2022-08-26T07:41:36.608Z,101171.34
2022-08-26T07:44:04.403Z,101177.81
2022-08-26T07:46:32.183Z,101180.63
2022-08-26T07:48:59.967Z,101174.97
2022-08-26T07:51:27.961Z,101179.00
2022-08-26T07:53:55.987Z,101174.16
2022-08-26T07:56:23.611Z,101183.44
2022-08-26T07:58:54.149Z,101180.63
2022-08-26T08:01:22.028Z,101181.47
2022-08-26T08:03:51.561Z,101174.97
2022-08-26T08:06:19.345Z,101174.97
2022-08-26T08:08:47.370Z,101172.16
2022-08-26T08:11:15.187Z,101174.97
2022-08-26T08:13:42.765Z,101173.00
2022-08-26T08:16:12.442Z,101169.34
2022-08-26T08:18:40.527Z,101174.97
2022-08-26T08:21:22.225Z,101176.63
2022-08-26T08:23:51.843Z,101164.53
2022-08-26T08:26:19.395Z,101166.53
2022-08-26T08:28:47.902Z,101159.72
2022-08-26T08:34:12.793Z,101158.06
2022-08-26T08:36:42.446Z,101152.44
2022-08-26T08:39:10.574Z,101158.91
2022-08-26T08:41:43.568Z,101154.06
2022-08-26T08:44:13.079Z,101154.06
2022-08-26T08:46:43.481Z,101151.25
2022-08-26T08:49:11.216Z,101155.69
2022-08-26T08:51:40.853Z,101149.25
2022-08-26T08:54:08.694Z,101150.06
2022-08-26T08:56:38.103Z,101148.44
2022-08-26T08:59:08.345Z,101148.44
2022-08-26T09:01:45.510Z,101138.78
2022-08-26T09:04:17.939Z,101142.81
2022-08-26T09:06:45.782Z,101142.81
2022-08-26T09:09:14.904Z,101142.81
2022-08-26T09:11:44.334Z,101137.97
2022-08-26T09:14:11.910Z,101137.16
2022-08-26T09:16:42.544Z,101139.97
2022-08-26T09:19:14.417Z,101144.41
2022-08-26T09:21:41.984Z,101138.78
2022-08-26T09:24:11.312Z,101138.78
2022-08-26T09:26:47.388Z,101130.31
2022-08-26T09:31:52.842Z,101134.75
2022-08-26T09:34:24.707Z,101117.84
2022-08-26T09:36:53.732Z,101120.66
2022-08-26T09:39:33.437Z,101119.84
2022-08-26T09:42:05.792Z,101114.22
2022-08-26T09:44:33.531Z,101113.81
2022-08-26T09:47:03.285Z,101113.00
2022-08-26T09:49:36.279Z,101104.94
2022-08-26T09:52:09.478Z,101102.94
2022-08-26T09:54:38.184Z,101095.28
2022-08-26T09:57:13.725Z,101100.91
2022-08-26T09:59:41.256Z,101085.63
2022-08-26T10:02:24.042Z,101085.63
2022-08-26T10:04:54.320Z,101069.91
2022-08-26T10:07:34.897Z,101057.44
2022-08-26T10:10:03.597Z,101047.34
2022-08-26T10:12:31.370Z,101038.91
2022-08-26T10:15:00.045Z,101046.97
2022-08-26T10:17:30.791Z,101050.97
2022-08-26T10:20:00.691Z,101040.50
2022-08-26T10:22:32.577Z,101039.31
2022-08-26T10:25:02.713Z,101039.72
2022-08-26T10:27:34.006Z,101029.25
2022-08-26T10:30:05.281Z,101035.69
2022-08-26T10:32:37.234Z,101034.88
2022-08-26T10:35:12.236Z,101023.59
2022-08-26T10:37:41.678Z,101020.78
2022-08-26T10:40:12.213Z,101016.75
2022-08-26T10:42:41.510Z,101006.69
2022-08-26T10:45:11.956Z,101016.34
2022-08-26T10:47:43.417Z,101010.72
2022-08-26T10:50:12.894Z,101005.06
2022-08-26T10:52:45.621Z,101001.84
2022-08-26T10:55:13.708Z,101003.88
2022-08-26T10:57:44.515Z,101009.50
2022-08-26T11:00:27.471Z,101012.31
2022-08-26T11:02:55.547Z,101017.97
2022-08-26T11:05:25.394Z,101017.97
2022-08-26T11:07:56.076Z,101019.56
2022-08-26T11:10:43.437Z,101020.78
2022-08-26T11:13:12.112Z,101029.25
2022-08-26T11:16:08.296Z,101024.41
2022-08-26T11:18:56.328Z,101016.75
2022-08-26T11:21:49.503Z,100999.84
2022-08-26T11:24:36.929Z,100991.38
2022-08-26T11:27:05.977Z,100991.38
2022-08-26T11:29:49.054Z,100995.41
2022-08-26T11:32:24.853Z,101002.66
2022-08-26T11:34:55.190Z,101002.66
2022-08-26T11:37:24.465Z,100995.41
2022-08-26T11:39:55.349Z,100991.38
2022-08-26T11:42:28.404Z,100980.09
2022-08-26T11:44:58.109Z,100987.38
2022-08-26T11:47:29.545Z,100998.66
2022-08-26T11:50:10.737Z,101002.66
2022-08-26T11:52:38.326Z,100980.91
2022-08-26T11:55:07.449Z,100974.47
2022-08-26T11:57:36.671Z,100994.19
2022-08-26T12:00:08.336Z,101007.13
2022-08-26T12:02:41.340Z,101012.75
2022-08-26T12:05:09.143Z,101009.94
2022-08-26T12:07:36.719Z,100998.66
2022-08-26T12:10:10.581Z,100988.56
2022-08-26T12:12:40.312Z,100975.28
2022-08-26T12:15:10.116Z,100967.66
2022-08-26T12:17:38.673Z,100953.56
2022-08-26T12:20:07.304Z,100970.47
2022-08-26T12:22:36.003Z,100984.56
2022-08-26T12:25:05.111Z,101015.59
2022-08-26T12:27:33.640Z,101026.84
2022-08-26T12:30:04.121Z,101032.50
2022-08-26T12:32:35.045Z,101034.09
2022-08-26T12:37:35.064Z,101060.69
2022-08-26T12:40:21.768Z,101071.97
2022-08-26T12:42:50.047Z,101071.97
2022-08-26T12:45:25.975Z,101071.97
2022-08-26T12:47:54.484Z,101077.59
2022-08-26T12:50:22.575Z,101084.06
2022-08-26T12:52:54.923Z,101072.78
2022-08-26T12:55:23.194Z,101073.94
2022-08-26T12:57:51.158Z,101058.69
2022-08-26T13:00:34.037Z,101051.03
2022-08-26T13:03:03.187Z,101038.13
2022-08-26T13:05:33.078Z,101034.09
2022-08-26T13:08:13.651Z,101047.00
2022-08-26T13:10:42.162Z,101034.91
2022-08-26T13:13:09.931Z,101036.94
2022-08-26T13:15:38.140Z,101039.75
2022-08-26T13:18:07.135Z,101042.97
2022-08-26T13:20:34.901Z,101051.84
2022-08-26T13:23:03.204Z,101053.44
2022-08-26T13:25:30.786Z,101052.63
2022-08-26T13:27:58.547Z,101052.63
2022-08-26T13:30:26.308Z,101051.03
2022-08-26T13:32:54.275Z,101058.28
2022-08-26T13:35:23.826Z,101072.38
2022-08-26T13:37:51.554Z,101094.13
2022-08-26T13:40:19.340Z,101103.38
2022-08-26T13:42:49.844Z,101117.47
2022-08-26T13:45:17.692Z,101125.94
2022-08-26T13:47:45.295Z,101133.59
2022-08-26T13:50:12.868Z,101145.69
2022-08-26T13:52:41.823Z,101156.97
2022-08-26T13:55:10.005Z,101158.16
2022-08-26T13:57:38.468Z,101157.34
2022-08-26T14:00:07.318Z,101129.97
2022-08-26T14:02:38.873Z,101121.50
2022-08-26T14:05:07.018Z,101118.69
2022-08-26T14:07:34.668Z,101118.69
2022-08-26T14:10:03.635Z,101117.06
2022-08-26T14:12:31.211Z,101113.06
2022-08-26T14:14:58.821Z,101124.31
2022-08-26T14:17:27.204Z,101101.78
2022-08-26T14:19:58.416Z,101075.59
2022-08-26T14:22:26.072Z,101066.31
2022-08-26T14:24:56.478Z,101051.03
2022-08-26T14:27:25.731Z,101038.13
2022-08-26T14:29:53.836Z,101017.19
2022-08-26T14:32:23.086Z,101020.00
2022-08-26T14:34:50.869Z,101007.53
2022-08-26T14:37:18.747Z,101005.91
2022-08-26T14:39:46.601Z,101000.28
2022-08-26T14:42:15.130Z,101007.53
2022-08-26T14:44:45.857Z,100997.47
2022-08-26T14:47:13.609Z,100989.00
2022-08-26T14:49:41.164Z,100979.34
2022-08-26T14:52:08.803Z,100964.84
2022-08-26T14:54:35.427Z,100970.47
2022-08-26T14:57:03.690Z,100969.25
2022-08-26T14:59:31.816Z,100951.53
2022-08-26T15:02:01.088Z,100943.91
2022-08-26T15:04:29.138Z,100943.91
2022-08-26T15:06:57.068Z,100934.63
2022-08-26T15:09:24.721Z,100926.97
2022-08-26T15:11:53.073Z,100919.72
2022-08-26T15:14:20.792Z,100918.53
2022-08-26T15:16:48.661Z,100897.97
2022-08-26T15:19:17.633Z,100904.41
2022-08-26T15:21:47.012Z,100904.41
2022-08-26T15:24:14.782Z,100895.97
2022-08-26T15:26:42.323Z,100897.97
2022-08-26T15:29:09.856Z,100891.53
2022-08-26T15:31:37.698Z,100888.72
2022-08-26T15:34:06.341Z,100876.22
2022-08-26T15:36:35.505Z,100875.44
2022-08-26T15:39:03.118Z,100864.94
2022-08-26T15:41:30.797Z,100852.06
2022-08-26T15:44:03.491Z,100852.88
2022-08-26T15:46:31.506Z,100848.03
2022-08-26T15:48:59.155Z,100844.41
2022-08-26T15:51:27.266Z,100841.59
2022-08-26T15:53:56.534Z,100848.03
2022-08-26T15:56:24.983Z,100842.41
2022-08-26T15:58:56.316Z,100843.59
2022-08-26T16:01:27.868Z,100850.06
2022-08-26T16:03:55.935Z,100849.25
2022-08-26T16:06:24.042Z,100857.72
2022-08-26T16:08:51.876Z,100852.88
2022-08-26T16:11:21.429Z,100857.72
2022-08-26T16:13:49.023Z,100869.78
2022-08-26T16:16:16.684Z,100885.91
2022-08-26T16:18:44.393Z,100886.69
2022-08-26T16:21:15.961Z,100890.69
2022-08-26T16:23:45.292Z,100902.81
2022-08-26T16:26:13.632Z,100908.44
2022-08-26T16:28:43.580Z,100916.91
2022-08-26T16:31:11.368Z,100931.00
2022-08-26T16:33:38.944Z,100931.00
2022-08-26T16:36:06.920Z,100925.38
2022-08-26T16:38:34.499Z,100922.53
2022-08-26T16:41:02.187Z,100919.72
2022-08-26T16:43:29.851Z,100919.72
2022-08-26T16:45:58.844Z,100918.88
2022-08-26T16:48:27.113Z,100924.53
2022-08-26T16:50:55.621Z,100924.53
2022-08-26T16:53:23.481Z,100936.63
2022-08-26T16:55:51.352Z,100937.81
2022-08-26T16:58:19.375Z,100936.63
2022-08-26T17:00:48.769Z,100945.47
2022-08-26T17:03:17.742Z,100956.38
2022-08-26T17:05:45.491Z,100957.56
2022-08-26T17:08:24.294Z,100954.72
2022-08-26T17:10:56.129Z,100959.19
2022-08-26T17:13:35.581Z,100963.19
2022-08-26T17:16:04.978Z,100956.75
2022-08-26T17:18:34.630Z,100953.56
2022-08-26T17:21:03.046Z,100943.47
2022-08-26T17:23:31.481Z,100942.28
2022-08-26T17:25:59.325Z,100942.28
2022-08-26T17:28:26.842Z,100935.00
2022-08-26T17:30:56.146Z,100935.00
2022-08-26T17:33:24.646Z,100930.16
2022-08-26T17:35:54.192Z,100923.72
2022-08-26T17:38:21.829Z,100929.34
2022-08-26T17:40:49.609Z,100917.28
2022-08-26T17:43:17.230Z,100914.09
2022-08-26T17:45:44.828Z,100923.72
2022-08-26T17:48:12.523Z,100918.09
2022-08-26T17:50:41.164Z,100918.09
2022-08-26T17:53:12.716Z,100918.88
2022-08-26T17:55:46.865Z,100920.09
2022-08-26T17:58:14.651Z,100912.44
2022-08-26T18:00:43.493Z,100900.38
2022-08-26T18:03:11.212Z,100900.38
2022-08-26T18:05:39.169Z,100900.38
2022-08-26T18:08:06.649Z,100899.56
2022-08-26T18:10:35.551Z,100895.53
2022-08-26T18:13:03.341Z,100895.53
2022-08-26T18:15:31.230Z,100899.56
2022-08-26T18:17:58.835Z,100898.34
2022-08-26T18:20:26.664Z,100899.56
2022-08-26T18:22:54.668Z,100900.38
2022-08-26T18:25:22.394Z,100900.38
2022-08-26T18:27:52.443Z,100899.56
2022-08-26T18:30:21.524Z,100894.72
2022-08-26T18:32:49.268Z,100894.72
2022-08-26T18:35:17.436Z,100893.91
2022-08-26T18:37:45.802Z,100895.53
2022-08-26T18:40:14.659Z,100895.53
2022-08-26T18:42:43.047Z,100895.53
2022-08-26T18:45:16.085Z,100901.16
2022-08-26T18:47:44.807Z,100889.91
2022-08-26T18:50:12.520Z,100884.25
2022-08-26T18:52:40.600Z,100887.06
2022-08-26T18:55:08.228Z,100878.63
2022-08-26T18:57:36.797Z,100882.66
2022-08-26T19:00:05.017Z,100879.81
2022-08-26T19:02:34.307Z,100888.28
2022-08-26T19:05:02.187Z,100883.44
2022-08-26T19:07:30.234Z,100877.00
2022-08-26T19:09:57.975Z,100897.53
2022-08-26T19:12:27.040Z,100905.19
2022-08-26T19:14:54.869Z,100911.63
2022-08-26T19:17:22.644Z,100931.38
2022-08-26T19:19:53.956Z,100932.19
2022-08-26T19:22:22.125Z,100945.47
2022-08-26T19:24:54.251Z,100945.47
2022-08-26T19:27:24.158Z,100958.75
2022-08-26T19:29:51.656Z,100970.84
2022-08-26T19:32:24.107Z,100979.28
2022-08-26T19:34:53.257Z,100979.28
2022-08-26T19:37:20.890Z,100981.31
2022-08-26T19:39:48.635Z,100980.09
2022-08-26T19:42:16.508Z,100975.66
2022-08-26T19:45:01.650Z,100976.47
2022-08-26T19:47:29.136Z,100978.50
2022-08-26T19:49:58.092Z,100979.28
2022-08-26T19:52:29.908Z,100971.66
2022-08-26T19:54:59.408Z,100973.66
2022-08-26T19:57:26.960Z,100974.47
2022-08-26T19:59:54.616Z,100965.59
2022-08-26T20:02:22.362Z,100970.03
2022-08-26T20:04:50.098Z,100963.19
2022-08-26T20:07:19.113Z,100961.56
2022-08-26T20:09:46.760Z,100946.69
2022-08-26T20:12:15.006Z,100955.94
2022-08-26T20:14:42.812Z,100965.59
2022-08-26T20:17:10.541Z,100962.38
2022-08-26T20:19:55.329Z,100959.56
2022-08-26T20:22:24.458Z,100958.75
2022-08-26T20:24:52.143Z,100961.56
2022-08-26T20:27:19.695Z,100972.84
2022-08-26T20:29:47.201Z,100977.69
2022-08-26T20:32:14.759Z,100967.22
2022-08-26T20:34:42.677Z,100958.34
2022-08-26T20:37:10.333Z,100961.56
2022-08-26T20:39:39.293Z,100965.19
2022-08-26T20:42:20.248Z,100969.22
2022-08-26T20:44:54.185Z,100965.59
2022-08-26T20:47:23.150Z,100978.50
2022-08-26T20:49:52.295Z,100976.88
2022-08-26T20:52:20.203Z,100982.53
2022-08-26T20:54:49.118Z,100983.31
2022-08-26T20:57:16.654Z,100988.16
2022-08-26T20:59:44.278Z,100984.53
2022-08-26T21:02:12.934Z,100990.97
2022-08-26T21:04:40.586Z,100988.16
2022-08-26T21:07:08.217Z,100988.09
2022-08-26T21:09:35.958Z,100982.03
2022-08-26T21:12:06.486Z,100978.41
2022-08-26T21:14:34.087Z,100984.03
2022-08-26T21:17:02.482Z,100983.25
2022-08-26T21:19:30.000Z,100988.88
2022-08-26T21:21:58.894Z,100989.69
2022-08-26T21:24:26.588Z,100991.69
2022-08-26T21:26:54.344Z,100995.31
2022-08-26T21:29:23.264Z,100978.81
2022-08-26T21:31:50.869Z,100987.25
2022-08-26T21:34:18.676Z,100977.59
2022-08-26T21:36:46.292Z,100983.25
2022-08-26T21:39:13.894Z,100978.81
2022-08-26T21:41:41.695Z,100988.09
2022-08-26T21:44:09.382Z,100991.75
2022-08-26T21:46:38.329Z,100989.38
2022-08-26T21:49:06.830Z,100986.53
2022-08-26T21:51:35.136Z,100980.91
2022-08-26T21:54:04.181Z,100981.72
2022-08-26T21:56:33.761Z,100982.53
2022-08-26T21:59:01.421Z,100997.81
2022-08-26T22:01:29.480Z,100992.19
2022-08-26T22:03:58.472Z,100988.16
2022-08-26T22:06:26.787Z,100977.69
2022-08-26T22:08:54.680Z,100984.13
2022-08-26T22:11:22.235Z,100982.53
2022-08-26T22:13:49.942Z,100981.72
2022-08-26T22:16:17.606Z,100980.50
2022-08-26T22:18:45.292Z,100983.31
2022-08-26T22:21:14.737Z,100981.31
2022-08-26T22:23:42.390Z,100972.06
2022-08-26T22:26:10.671Z,100959.97
2022-08-26T22:28:39.293Z,100965.59
2022-08-26T22:31:07.398Z,100958.75
2022-08-26T22:33:35.156Z,100961.56
2022-08-26T22:36:02.837Z,100959.97
2022-08-26T22:38:31.733Z,100954.31
2022-08-26T22:41:00.354Z,100955.94
2022-08-26T22:43:28.642Z,100954.72
2022-08-26T22:45:56.324Z,100953.94
2022-08-26T22:48:24.838Z,100950.31
2022-08-26T22:50:53.312Z,100933.38
2022-08-26T22:53:22.929Z,100928.97
2022-08-26T22:55:51.891Z,100922.13
2022-08-26T22:58:19.482Z,100913.66
2022-08-26T23:00:47.508Z,100906.41
2022-08-26T23:03:15.156Z,100897.94
2022-08-26T23:05:42.768Z,100888.28
2022-08-26T23:08:10.615Z,100898.75
2022-08-26T23:10:41.206Z,100891.91
2022-08-26T23:13:10.363Z,100882.66
2022-08-26T23:15:38.212Z,100879.81
2022-08-26T23:18:06.033Z,100871.38
2022-08-26T23:20:33.610Z,100877.00
2022-08-26T23:23:01.366Z,100877.00
2022-08-26T23:25:29.840Z,100877.81
2022-08-26T23:27:58.158Z,100877.00
2022-08-26T23:30:27.571Z,100883.44
2022-08-26T23:32:55.287Z,100888.28
2022-08-26T23:35:22.245Z,100882.66
2022-08-26T23:37:51.326Z,100888.28
2022-08-26T23:40:19.856Z,100889.91
2022-08-26T23:42:47.833Z,100897.53
2022-08-26T23:45:18.342Z,100899.56
2022-08-26T23:47:47.406Z,100911.63
2022-08-26T23:50:14.963Z,100910.84
2022-08-26T23:53:00.631Z,100920.50
2022-08-26T23:55:28.334Z,100917.28
2022-08-26T23:57:55.941Z,100922.91
